createdAt,value
2022-08-15T00:00:03.824Z,97805.81
2022-08-15T00:04:01.037Z,97798.70
2022-08-15T00:07:18.841Z,97789.23
2022-08-15T00:11:18.312Z,97794.04
2022-08-15T00:14:57.866Z,97789.56
2022-08-15T00:18:30.964Z,97786.89
2022-08-15T00:22:18.370Z,97782.47
2022-08-15T00:25:57.905Z,97788.60
2022-08-15T00:29:38.584Z,97792.81
2022-08-15T00:33:20.847Z,97788.63
2022-08-15T00:36:54.788Z,97792.84
2022-08-15T00:40:32.324Z,97796.14
2022-08-15T00:44:09.940Z,97802.73
2022-08-15T00:47:41.975Z,97804.45
2022-08-15T00:51:13.826Z,97802.14
2022-08-15T00:54:59.874Z,97795.66
2022-08-15T00:58:43.700Z,97796.42
2022-08-15T01:02:03.255Z,97794.73
2022-08-15T01:05:14.712Z,97794.66
2022-08-15T01:08:05.745Z,97784.11
2022-08-15T01:10:59.853Z,97784.41
2022-08-15T01:14:02.614Z,97780.46
2022-08-15T01:16:53.924Z,97777.80
2022-08-15T01:20:00.636Z,97776.12
2022-08-15T01:23:23.733Z,97779.33
2022-08-15T01:26:41.505Z,97775.11
2022-08-15T01:29:33.831Z,97775.04
2022-08-15T01:32:21.948Z,97773.92
2022-08-15T01:35:11.459Z,97771.02
2022-08-15T01:38:00.639Z,97777.77
2022-08-15T01:41:05.619Z,97778.86
2022-08-15T01:44:25.564Z,97787.79
2022-08-15T01:47:27.138Z,97789.04
2022-08-15T01:50:29.641Z,97785.77
2022-08-15T01:53:39.574Z,97790.52
2022-08-15T01:56:36.684Z,97787.30
2022-08-15T01:59:27.691Z,97780.98
2022-08-15T02:02:43.017Z,97778.59
2022-08-15T02:05:31.157Z,97776.02
2022-08-15T02:08:32.301Z,97769.15
2022-08-15T02:11:26.242Z,97768.98
2022-08-15T02:14:38.745Z,97765.52
2022-08-15T02:17:21.663Z,97758.38
2022-08-15T02:20:23.095Z,97755.39
2022-08-15T02:23:16.887Z,97750.77
2022-08-15T02:26:10.084Z,97749.29
2022-08-15T02:28:58.054Z,97747.13
2022-08-15T02:32:00.842Z,97743.44
2022-08-15T02:34:49.305Z,97744.77
2022-08-15T02:37:39.229Z,97738.12
2022-08-15T02:40:45.242Z,97740.45
2022-08-15T02:43:41.243Z,97739.70
2022-08-15T02:46:31.742Z,97739.38
2022-08-15T02:49:20.696Z,97734.12
2022-08-15T02:52:20.495Z,97736.13
2022-08-15T02:55:11.640Z,97727.47
2022-08-15T02:58:04.749Z,97718.44
2022-08-15T03:00:53.261Z,97709.39
2022-08-15T03:03:45.870Z,97718.55
2022-08-15T03:06:34.561Z,97720.73
2022-08-15T03:09:25.090Z,97724.67
2022-08-15T03:12:31.090Z,97715.38
2022-08-15T03:15:30.223Z,97715.31
2022-08-15T03:18:31.712Z,97717.80
2022-08-15T03:21:22.029Z,97711.27
2022-08-15T03:24:11.349Z,97708.39
2022-08-15T03:27:00.471Z,97708.65
2022-08-15T03:29:53.564Z,97713.67
2022-08-15T03:32:48.671Z,97715.10
2022-08-15T03:35:42.360Z,97712.34
2022-08-15T03:38:49.000Z,97707.80
2022-08-15T03:41:37.449Z,97712.08
2022-08-15T03:44:27.357Z,97706.12
2022-08-15T03:47:16.917Z,97708.58
2022-08-15T03:50:23.958Z,97702.83
2022-08-15T03:53:16.033Z,97712.79
2022-08-15T03:56:06.883Z,97716.58
2022-08-15T03:58:58.556Z,97716.02
2022-08-15T04:01:47.666Z,97716.34
2022-08-15T04:04:35.539Z,97725.79
2022-08-15T04:07:23.856Z,97720.10
2022-08-15T04:10:37.025Z,97725.02
2022-08-15T04:13:25.572Z,97722.63
2022-08-15T04:17:03.536Z,97727.16
2022-08-15T04:19:46.271Z,97727.81
2022-08-15T04:22:53.906Z,97722.05
2022-08-15T04:26:00.718Z,97724.09
2022-08-15T04:28:57.696Z,97719.16
2022-08-15T04:31:47.767Z,97716.23
2022-08-15T04:34:47.519Z,97707.83
2022-08-15T04:37:41.048Z,97712.05
2022-08-15T04:41:17.584Z,97708.30
2022-08-15T04:43:39.466Z,97713.92
2022-08-15T04:46:27.996Z,97716.14
2022-08-15T04:49:16.931Z,97718.36
2022-08-15T04:52:15.064Z,97725.23
2022-08-15T04:55:06.359Z,97726.05
2022-08-15T04:57:58.647Z,97727.55
2022-08-15T05:01:04.432Z,97724.48
2022-08-15T05:03:57.405Z,97731.41
2022-08-15T05:06:51.693Z,97728.43
2022-08-15T05:09:58.910Z,97723.59
2022-08-15T05:12:46.820Z,97719.98
2022-08-15T05:15:53.905Z,97716.73
2022-08-15T05:18:46.401Z,97723.02
2022-08-15T05:21:40.703Z,97720.30
2022-08-15T05:24:31.306Z,97717.05
2022-08-15T05:27:34.880Z,97718.91
2022-08-15T05:30:29.218Z,97719.40
2022-08-15T05:33:20.961Z,97717.34
2022-08-15T05:36:30.396Z,97715.02
2022-08-15T05:39:23.032Z,97721.67
2022-08-15T05:42:34.588Z,97714.66
2022-08-15T05:45:41.729Z,97710.94
2022-08-15T05:48:34.159Z,97708.99
2022-08-15T05:51:57.618Z,97707.27
2022-08-15T05:55:30.554Z,97706.89
2022-08-15T05:58:56.016Z,97713.33
2022-08-15T06:02:35.634Z,97716.42
2022-08-15T06:05:14.890Z,97712.23
2022-08-15T06:08:50.226Z,97719.59
2022-08-15T06:11:31.098Z,97726.55
2022-08-15T06:14:35.222Z,97726.25
2022-08-15T06:17:34.631Z,97729.55
2022-08-15T06:20:42.425Z,97721.42
2022-08-15T06:23:39.528Z,97731.27
2022-08-15T06:26:53.866Z,19542.28
2022-08-15T06:30:09.675Z,-1.00
2022-08-15T06:33:56.673Z,-1.00
2022-08-15T06:37:14.772Z,-1.00
2022-08-15T06:40:27.845Z,-1.00
2022-08-15T06:43:17.037Z,-1.00
2022-08-15T06:46:43.572Z,-1.00
2022-08-15T06:49:48.307Z,-1.00
2022-08-15T06:52:42.400Z,-1.00
2022-08-15T06:55:41.961Z,-1.00
2022-08-15T06:58:56.688Z,-1.00
2022-08-15T07:02:16.637Z,-1.00
2022-08-15T07:05:29.305Z,-1.00
2022-08-15T07:08:42.629Z,-1.00
2022-08-15T07:11:54.897Z,-1.00
2022-08-15T07:15:00.305Z,-1.00
2022-08-15T07:18:02.620Z,-1.00
2022-08-15T07:21:00.793Z,-1.00
2022-08-15T07:24:34.998Z,-1.00
2022-08-15T07:27:30.412Z,-1.00
2022-08-15T07:30:30.941Z,-1.00
2022-08-15T07:33:44.463Z,-1.00
2022-08-15T07:36:36.076Z,-1.00
2022-08-15T07:39:33.983Z,-1.00
2022-08-15T07:42:28.528Z,-1.00
2022-08-15T07:45:40.904Z,-1.00
2022-08-15T07:48:46.216Z,-1.00
2022-08-15T07:52:03.803Z,-1.00
2022-08-15T07:54:57.885Z,-1.00
2022-08-15T07:58:05.496Z,-1.00
2022-08-15T08:01:34.093Z,-1.00
2022-08-15T08:04:30.338Z,-1.00
2022-08-15T08:07:33.179Z,-1.00
2022-08-15T08:10:32.352Z,-1.00
2022-08-15T08:13:43.648Z,-1.00
2022-08-15T08:16:45.553Z,-1.00
2022-08-15T08:19:53.578Z,-1.00
2022-08-15T08:22:56.453Z,-1.00
2022-08-15T08:26:18.430Z,-1.00
2022-08-15T08:29:33.962Z,-1.00
2022-08-15T08:32:39.557Z,-1.00
2022-08-15T08:36:36.608Z,-1.00
2022-08-15T08:39:33.038Z,-1.00
2022-08-15T08:42:43.937Z,-1.00
2022-08-15T08:45:58.379Z,-1.00
2022-08-15T08:49:18.200Z,-1.00
2022-08-15T08:52:33.629Z,-1.00
2022-08-15T08:55:44.937Z,-1.00
2022-08-15T08:58:44.177Z,-1.00
2022-08-15T09:01:36.496Z,-1.00
2022-08-15T09:04:38.691Z,-1.00
2022-08-15T09:07:34.807Z,-1.00
2022-08-15T09:10:29.730Z,-1.00
2022-08-15T09:13:38.174Z,-1.00
2022-08-15T09:16:38.535Z,-1.00
2022-08-15T09:19:47.878Z,-1.00
2022-08-15T09:22:40.995Z,-1.00
2022-08-15T09:25:30.922Z,-1.00
2022-08-15T09:28:36.171Z,-1.00
2022-08-15T09:31:40.378Z,-1.00
2022-08-15T09:34:44.103Z,-1.00
2022-08-15T09:37:43.559Z,-1.00
2022-08-15T09:40:58.690Z,-1.00
2022-08-15T09:44:37.619Z,-1.00
2022-08-15T09:47:49.547Z,-1.00
2022-08-15T09:51:19.783Z,-1.00
2022-08-15T09:54:29.369Z,-1.00
2022-08-15T09:57:29.279Z,-1.00
2022-08-15T10:00:56.474Z,-1.00
2022-08-15T10:03:47.811Z,-1.00
2022-08-15T10:06:54.954Z,-1.00
2022-08-15T10:10:10.349Z,-1.00
2022-08-15T10:13:30.672Z,-1.00
2022-08-15T10:16:49.072Z,-1.00
2022-08-15T10:20:00.502Z,-1.00
2022-08-15T10:22:49.762Z,-1.00
2022-08-15T10:25:39.687Z,-1.00
2022-08-15T10:28:38.217Z,-1.00
2022-08-15T10:31:56.400Z,-1.00
2022-08-15T10:35:12.628Z,-1.00
2022-08-15T10:38:03.958Z,-1.00
2022-08-15T10:41:00.960Z,-1.00
2022-08-15T10:44:37.889Z,-1.00
2022-08-15T10:48:01.824Z,-1.00
2022-08-15T10:51:27.783Z,-1.00
2022-08-15T10:54:43.330Z,-1.00
2022-08-15T10:57:41.418Z,-1.00
2022-08-15T11:00:50.811Z,-1.00
2022-08-15T11:04:49.186Z,-1.00
2022-08-15T11:06:56.053Z,-1.00
2022-08-15T11:09:51.278Z,-1.00
2022-08-15T11:12:45.070Z,-1.00
2022-08-15T11:15:56.601Z,-1.00
2022-08-15T11:18:58.137Z,-1.00
2022-08-15T11:21:59.170Z,-1.00
2022-08-15T11:25:01.710Z,-1.00
2022-08-15T11:28:41.049Z,-1.00
2022-08-15T11:31:20.514Z,-1.00
2022-08-15T11:34:37.229Z,-1.00
2022-08-15T11:37:46.820Z,-1.00
2022-08-15T11:40:49.772Z,-1.00
2022-08-15T11:43:39.465Z,-1.00
2022-08-15T11:46:30.578Z,-1.00
2022-08-15T11:49:33.514Z,-1.00
2022-08-15T11:52:42.492Z,-1.00
2022-08-15T11:55:34.969Z,-1.00
2022-08-15T11:58:30.743Z,-1.00
2022-08-15T12:01:31.628Z,-1.00
2022-08-15T12:04:41.216Z,-1.00
2022-08-15T12:07:46.231Z,-1.00
2022-08-15T12:10:38.475Z,-1.00
2022-08-15T12:13:57.464Z,-1.00
2022-08-15T12:17:03.983Z,-1.00
2022-08-15T12:20:27.000Z,-1.00
2022-08-15T12:23:27.663Z,-1.00
2022-08-15T12:26:38.303Z,-1.00
2022-08-15T12:29:32.826Z,-1.00
2022-08-15T12:32:36.891Z,-1.00
2022-08-15T12:35:41.872Z,-1.00
2022-08-15T12:38:39.250Z,-1.00
2022-08-15T12:42:47.931Z,-1.00
2022-08-15T12:44:38.711Z,-1.00
2022-08-15T12:47:39.915Z,-1.00
2022-08-15T12:50:46.666Z,-1.00
2022-08-15T12:53:33.464Z,-1.00
2022-08-15T12:56:43.922Z,-1.00
2022-08-15T12:59:31.362Z,-1.00
2022-08-15T13:02:47.557Z,-1.00
2022-08-15T13:06:18.312Z,-1.00
2022-08-15T13:08:39.716Z,-1.00
2022-08-15T13:11:28.388Z,-1.00
2022-08-15T13:14:18.889Z,-1.00
2022-08-15T13:17:46.374Z,-1.00
2022-08-15T13:20:31.491Z,-1.00
2022-08-15T13:23:42.622Z,-1.00
2022-08-15T13:26:48.102Z,-1.00
2022-08-15T13:29:36.341Z,-1.00
2022-08-15T13:32:42.373Z,-1.00
2022-08-15T13:35:30.642Z,-1.00
2022-08-15T13:38:23.009Z,-1.00
2022-08-15T13:41:17.601Z,-1.00
2022-08-15T13:44:07.472Z,-1.00
2022-08-15T13:47:20.450Z,-1.00
2022-08-15T13:50:18.102Z,-1.00
2022-08-15T13:53:05.775Z,-1.00
2022-08-15T13:55:53.319Z,-1.00
2022-08-15T13:58:39.926Z,-1.00
2022-08-15T14:01:34.940Z,-1.00
2022-08-15T14:04:29.248Z,-1.00
2022-08-15T14:07:18.961Z,-1.00
2022-08-15T14:11:00.414Z,-1.00
2022-08-15T14:13:22.438Z,-1.00
2022-08-15T14:16:57.454Z,-1.00
2022-08-15T14:19:43.906Z,-1.00
2022-08-15T14:22:28.850Z,-1.00
2022-08-15T14:27:08.953Z,-1.00
2022-08-15T14:28:23.960Z,-1.00
2022-08-15T14:31:32.716Z,-1.00
2022-08-15T14:34:54.497Z,-1.00
2022-08-15T14:37:33.361Z,-1.00
2022-08-15T14:40:40.727Z,-1.00
2022-08-15T14:43:28.324Z,-1.00
2022-08-15T14:46:34.618Z,-1.00
2022-08-15T14:50:52.425Z,-1.00
2022-08-15T14:52:32.404Z,-1.00
2022-08-15T14:55:19.295Z,-1.00
2022-08-15T14:58:07.185Z,-1.00
2022-08-15T15:00:57.677Z,-1.00
2022-08-15T15:04:06.693Z,-1.00
2022-08-15T15:06:53.722Z,-1.00
2022-08-15T15:09:41.105Z,-1.00
2022-08-15T15:12:27.725Z,-1.00
2022-08-15T15:15:15.621Z,-1.00
2022-08-15T15:18:09.236Z,-1.00
2022-08-15T15:21:14.334Z,-1.00
2022-08-15T15:24:03.381Z,-1.00
2022-08-15T15:26:55.323Z,-1.00
2022-08-15T15:29:50.876Z,-1.00
2022-08-15T15:32:38.512Z,-1.00
2022-08-15T15:35:25.662Z,-1.00
2022-08-15T15:38:34.563Z,-1.00
2022-08-15T15:41:24.372Z,-1.00
2022-08-15T15:44:13.084Z,-1.00
2022-08-15T15:47:05.533Z,-1.00
2022-08-15T15:49:59.462Z,-1.00
2022-08-15T15:52:54.371Z,-1.00
2022-08-15T15:55:42.972Z,-1.00
2022-08-15T15:59:00.285Z,-1.00
2022-08-15T16:02:44.696Z,-1.00
2022-08-15T16:04:46.616Z,-1.00
2022-08-15T16:07:43.129Z,-1.00
2022-08-15T16:10:47.990Z,-1.00
2022-08-15T16:14:20.046Z,-1.00
2022-08-15T16:17:21.948Z,-1.00
2022-08-15T16:20:41.901Z,-1.00
2022-08-15T16:23:48.105Z,-1.00
2022-08-15T16:26:58.915Z,-1.00
2022-08-15T16:30:30.042Z,-1.00
2022-08-15T16:33:36.575Z,-1.00
2022-08-15T16:36:40.312Z,-1.00
2022-08-15T16:39:46.226Z,-1.00
2022-08-15T16:42:49.688Z,-1.00
2022-08-15T16:46:02.367Z,-1.00
2022-08-15T16:49:23.984Z,-1.00
2022-08-15T16:52:41.087Z,-1.00
2022-08-15T16:55:41.007Z,-1.00
2022-08-15T16:58:46.594Z,-1.00
2022-08-15T17:02:00.563Z,-1.00
2022-08-15T17:05:03.626Z,-1.00
2022-08-15T17:08:13.501Z,-1.00
2022-08-15T17:11:09.549Z,-1.00
2022-08-15T17:14:48.458Z,-1.00
2022-08-15T17:17:38.857Z,-1.00
2022-08-15T17:20:39.191Z,-1.00
2022-08-15T17:23:37.090Z,-1.00
2022-08-15T17:26:49.511Z,-1.00
2022-08-15T17:29:42.024Z,-1.00
2022-08-15T17:33:02.018Z,-1.00
2022-08-15T17:35:51.401Z,-1.00
2022-08-15T17:38:41.052Z,-1.00
2022-08-15T17:41:41.533Z,-1.00
2022-08-15T17:44:50.485Z,-1.00
2022-08-15T17:47:48.850Z,-1.00
2022-08-15T17:50:47.872Z,-1.00
2022-08-15T17:53:51.965Z,-1.00
2022-08-15T17:56:50.915Z,-1.00
2022-08-15T17:59:53.624Z,-1.00
2022-08-15T18:02:43.666Z,-1.00
2022-08-15T18:05:35.134Z,-1.00
2022-08-15T18:08:23.358Z,-1.00
2022-08-15T18:11:11.111Z,-1.00
2022-08-15T18:14:38.127Z,-1.00
2022-08-15T18:17:34.007Z,-1.00
2022-08-15T18:20:28.033Z,-1.00
2022-08-15T18:23:22.504Z,-1.00
2022-08-15T18:26:53.315Z,-1.00
2022-08-15T18:29:54.760Z,-1.00
2022-08-15T18:32:52.270Z,-1.00
2022-08-15T18:35:42.442Z,-1.00
2022-08-15T18:38:32.495Z,-1.00
2022-08-15T18:41:30.729Z,-1.00
2022-08-15T18:44:26.336Z,-1.00
2022-08-15T18:47:35.324Z,-1.00
2022-08-15T18:50:45.288Z,-1.00
2022-08-15T18:53:56.336Z,-1.00
2022-08-15T18:56:58.634Z,-1.00
2022-08-15T18:59:54.168Z,-1.00
2022-08-15T19:02:54.959Z,-1.00
2022-08-15T19:05:45.743Z,-1.00
2022-08-15T19:08:48.433Z,-1.00
2022-08-15T19:11:42.405Z,-1.00
2022-08-15T19:14:35.239Z,-1.00
2022-08-15T19:17:31.630Z,-1.00
2022-08-15T19:23:32.254Z,-1.00
2022-08-15T19:24:28.279Z,-1.00
2022-08-15T19:26:40.938Z,-1.00
2022-08-15T19:29:58.829Z,-1.00
2022-08-15T19:33:25.967Z,-1.00
2022-08-15T19:36:56.413Z,-1.00
2022-08-15T19:40:18.694Z,-1.00
2022-08-15T19:43:14.115Z,-1.00
2022-08-15T19:46:35.435Z,-1.00
2022-08-15T19:50:05.225Z,-1.00
2022-08-15T19:53:10.787Z,-1.00
2022-08-15T19:56:07.400Z,-1.00
2022-08-15T19:59:17.113Z,-1.00
2022-08-15T20:02:27.230Z,-1.00
2022-08-15T20:06:05.787Z,-1.00
2022-08-15T20:08:43.671Z,-1.00
2022-08-15T20:11:44.374Z,-1.00
2022-08-15T20:15:04.251Z,-1.00
2022-08-15T20:18:06.741Z,-1.00
2022-08-15T20:21:22.617Z,-1.00
2022-08-15T20:24:23.485Z,-1.00
2022-08-15T20:27:17.981Z,-1.00
2022-08-15T20:30:20.573Z,-1.00
2022-08-15T20:33:16.833Z,-1.00
2022-08-15T20:36:07.361Z,-1.00
2022-08-15T20:39:02.137Z,-1.00
2022-08-15T20:41:55.147Z,-1.00
2022-08-15T20:44:57.451Z,-1.00
2022-08-15T20:48:40.561Z,-1.00
2022-08-15T20:51:15.043Z,-1.00
2022-08-15T20:54:03.368Z,-1.00
2022-08-15T20:56:50.351Z,-1.00
2022-08-15T21:00:01.128Z,-1.00
2022-08-15T21:03:59.965Z,-1.00
2022-08-15T21:06:50.893Z,-1.00
2022-08-15T21:10:07.748Z,-1.00
2022-08-15T21:13:35.853Z,-1.00
2022-08-15T21:16:54.488Z,-1.00
2022-08-15T21:20:21.362Z,-1.00
2022-08-15T21:23:23.572Z,-1.00
2022-08-15T21:26:40.326Z,-1.00
2022-08-15T21:29:32.585Z,-1.00
2022-08-15T21:32:33.155Z,-1.00
2022-08-15T21:35:37.992Z,-1.00
2022-08-15T21:38:54.456Z,-1.00
2022-08-15T21:41:54.632Z,-1.00
2022-08-15T21:45:22.067Z,-1.00
2022-08-15T21:48:33.960Z,-1.00
2022-08-15T21:51:36.457Z,-1.00
2022-08-15T21:54:53.060Z,-1.00
2022-08-15T21:57:54.098Z,-1.00
2022-08-15T22:00:43.075Z,-1.00
2022-08-15T22:03:40.975Z,-1.00
2022-08-15T22:06:31.846Z,-1.00
2022-08-15T22:09:33.616Z,-1.00
2022-08-15T22:12:29.321Z,-1.00
2022-08-15T22:15:42.318Z,-1.00
2022-08-15T22:18:30.167Z,-1.00
2022-08-15T22:21:21.861Z,-1.00
2022-08-15T22:24:11.576Z,-1.00
2022-08-15T22:26:59.068Z,-1.00
2022-08-15T22:29:48.405Z,-1.00
2022-08-15T22:32:39.420Z,-1.00
2022-08-15T22:35:39.897Z,-1.00
2022-08-15T22:38:33.520Z,-1.00
2022-08-15T22:41:28.393Z,-1.00
2022-08-15T22:44:29.086Z,-1.00
2022-08-15T22:47:20.614Z,-1.00
2022-08-15T22:50:11.710Z,-1.00
2022-08-15T22:52:59.974Z,-1.00
2022-08-15T22:55:47.448Z,-1.00
2022-08-15T22:58:39.566Z,-1.00
2022-08-15T23:01:33.039Z,-1.00
2022-08-15T23:04:40.458Z,-1.00
2022-08-15T23:07:41.307Z,-1.00
2022-08-15T23:10:38.981Z,-1.00
2022-08-15T23:13:59.772Z,-1.00
2022-08-15T23:17:05.398Z,-1.00
2022-08-15T23:20:30.078Z,-1.00
2022-08-15T23:23:28.530Z,-1.00
2022-08-15T23:26:30.707Z,-1.00
2022-08-15T23:29:36.724Z,-1.00
2022-08-15T23:32:30.793Z,-1.00
2022-08-15T23:35:20.691Z,-1.00
2022-08-15T23:38:17.674Z,-1.00
2022-08-15T23:41:22.026Z,-1.00
2022-08-15T23:44:09.313Z,-1.00
2022-08-15T23:47:05.456Z,-1.00
2022-08-15T23:50:00.094Z,-1.00
2022-08-15T23:53:00.380Z,-1.00
2022-08-15T23:55:59.135Z,-1.00
2022-08-15T23:58:56.710Z,-1.00
